sensor_id;sensor_type;location;lat;lon;timestamp;temperature;humidity
36206;DHT22;22242;48.796;9.930;2023-06-19T00:00:00;23.50;58.50
36206;DHT22;22242;48.796;9.930;2023-06-19T00:02:37;23.60;58.60
36206;DHT22;22242;48.796;9.930;2023-06-19T00:05:05;23.60;58.30
36206;DHT22;22242;48.796;9.930;2023-06-19T00:07:33;23.60;58.40
36206;DHT22;22242;48.796;9.930;2023-06-19T00:10:00;23.60;58.50
36206;DHT22;22242;48.796;9.930;2023-06-19T00:12:27;23.70;58.50
36206;DHT22;22242;48.796;9.930;2023-06-19T00:14:54;23.80;58.30
36206;DHT22;22242;48.796;9.930;2023-06-19T00:17:21;23.60;58.30
36206;DHT22;22242;48.796;9.930;2023-06-19T00:19:52;23.70;58.40
36206;DHT22;22242;48.796;9.930;2023-06-19T00:22:19;23.70;58.40
36206;DHT22;22242;48.796;9.930;2023-06-19T00:24:48;23.70;58.50
36206;DHT22;22242;48.796;9.930;2023-06-19T00:27:15;23.60;58.60
36206;DHT22;22242;48.796;9.930;2023-06-19T00:29:42;23.60;58.60
36206;DHT22;22242;48.796;9.930;2023-06-19T00:32:09;23.60;58.70
36206;DHT22;22242;48.796;9.930;2023-06-19T00:34:36;23.60;58.80
36206;DHT22;22242;48.796;9.930;2023-06-19T00:37:04;23.60;59.50
36206;DHT22;22242;48.796;9.930;2023-06-19T00:39:31;23.50;59.00
36206;DHT22;22242;48.796;9.930;2023-06-19T00:42:00;23.60;59.30
36206;DHT22;22242;48.796;9.930;2023-06-19T00:44:27;23.40;59.70
36206;DHT22;22242;48.796;9.930;2023-06-19T00:46:57;23.20;59.80
36206;DHT22;22242;48.796;9.930;2023-06-19T00:49:25;23.20;59.70
36206;DHT22;22242;48.796;9.930;2023-06-19T00:51:52;23.30;60.10
36206;DHT22;22242;48.796;9.930;2023-06-19T00:54:20;23.30;59.80
36206;DHT22;22242;48.796;9.930;2023-06-19T00:56:47;23.30;59.90
36206;DHT22;22242;48.796;9.930;2023-06-19T00:59:19;23.20;60.00
36206;DHT22;22242;48.796;9.930;2023-06-19T01:01:47;23.30;59.90
36206;DHT22;22242;48.796;9.930;2023-06-19T01:04:14;23.40;59.30
36206;DHT22;22242;48.796;9.930;2023-06-19T01:06:50;23.40;59.20
36206;DHT22;22242;48.796;9.930;2023-06-19T01:09:19;23.40;59.20
36206;DHT22;22242;48.796;9.930;2023-06-19T01:11:51;23.40;59.20
36206;DHT22;22242;48.796;9.930;2023-06-19T01:14:25;23.40;59.20
36206;DHT22;22242;48.796;9.930;2023-06-19T01:16:52;23.40;59.10
36206;DHT22;22242;48.796;9.930;2023-06-19T01:19:21;23.50;58.80
36206;DHT22;22242;48.796;9.930;2023-06-19T01:21:49;23.50;58.60
36206;DHT22;22242;48.796;9.930;2023-06-19T01:24:17;23.50;58.70
36206;DHT22;22242;48.796;9.930;2023-06-19T01:26:44;23.50;58.80
36206;DHT22;22242;48.796;9.930;2023-06-19T01:29:13;23.50;59.10
36206;DHT22;22242;48.796;9.930;2023-06-19T01:31:46;23.40;59.20
36206;DHT22;22242;48.796;9.930;2023-06-19T01:34:17;23.40;59.50
36206;DHT22;22242;48.796;9.930;2023-06-19T01:36:49;23.40;59.60
36206;DHT22;22242;48.796;9.930;2023-06-19T01:39:19;23.30;60.30
36206;DHT22;22242;48.796;9.930;2023-06-19T01:41:47;23.50;59.60
36206;DHT22;22242;48.796;9.930;2023-06-19T01:44:15;23.40;59.80
36206;DHT22;22242;48.796;9.930;2023-06-19T01:46:47;23.30;60.20
36206;DHT22;22242;48.796;9.930;2023-06-19T01:49:14;23.20;60.20
36206;DHT22;22242;48.796;9.930;2023-06-19T01:51:41;23.30;60.20
36206;DHT22;22242;48.796;9.930;2023-06-19T01:54:08;23.30;59.90
36206;DHT22;22242;48.796;9.930;2023-06-19T01:56:38;23.20;60.80
36206;DHT22;22242;48.796;9.930;2023-06-19T01:59:05;23.10;61.20
36206;DHT22;22242;48.796;9.930;2023-06-19T02:01:32;23.10;61.10
36206;DHT22;22242;48.796;9.930;2023-06-19T02:04:00;23.10;61.00
36206;DHT22;22242;48.796;9.930;2023-06-19T02:06:30;23.10;61.20
36206;DHT22;22242;48.796;9.930;2023-06-19T02:08:56;23.00;61.70
36206;DHT22;22242;48.796;9.930;2023-06-19T02:11:23;23.00;62.50
36206;DHT22;22242;48.796;9.930;2023-06-19T02:13:54;22.90;63.10
36206;DHT22;22242;48.796;9.930;2023-06-19T02:16:22;22.60;65.60
36206;DHT22;22242;48.796;9.930;2023-06-19T02:18:48;22.40;67.90
36206;DHT22;22242;48.796;9.930;2023-06-19T02:21:15;22.10;69.50
36206;DHT22;22242;48.796;9.930;2023-06-19T02:23:43;22.00;68.60
36206;DHT22;22242;48.796;9.930;2023-06-19T02:26:10;21.90;68.60
36206;DHT22;22242;48.796;9.930;2023-06-19T02:28:38;21.80;70.10
36206;DHT22;22242;48.796;9.930;2023-06-19T02:31:06;21.50;72.50
36206;DHT22;22242;48.796;9.930;2023-06-19T02:33:33;21.30;73.30
36206;DHT22;22242;48.796;9.930;2023-06-19T02:36:00;21.30;73.30
36206;DHT22;22242;48.796;9.930;2023-06-19T02:38:27;21.30;74.40
36206;DHT22;22242;48.796;9.930;2023-06-19T02:40:55;21.10;75.10
36206;DHT22;22242;48.796;9.930;2023-06-19T02:43:23;21.10;75.70
36206;DHT22;22242;48.796;9.930;2023-06-19T02:45:50;21.10;74.50
36206;DHT22;22242;48.796;9.930;2023-06-19T02:48:18;21.10;76.30
36206;DHT22;22242;48.796;9.930;2023-06-19T02:50:46;21.20;76.40
36206;DHT22;22242;48.796;9.930;2023-06-19T02:53:13;21.10;77.50
36206;DHT22;22242;48.796;9.930;2023-06-19T02:55:42;21.10;78.90
36206;DHT22;22242;48.796;9.930;2023-06-19T02:58:09;21.00;80.50
36206;DHT22;22242;48.796;9.930;2023-06-19T03:00:37;21.00;80.60
36206;DHT22;22242;48.796;9.930;2023-06-19T03:03:05;21.10;81.80
36206;DHT22;22242;48.796;9.930;2023-06-19T03:05:33;21.00;84.20
36206;DHT22;22242;48.796;9.930;2023-06-19T03:08:00;21.00;85.50
36206;DHT22;22242;48.796;9.930;2023-06-19T03:10:27;21.10;86.10
36206;DHT22;22242;48.796;9.930;2023-06-19T03:12:54;21.10;87.30
36206;DHT22;22242;48.796;9.930;2023-06-19T03:15:24;21.10;87.10
36206;DHT22;22242;48.796;9.930;2023-06-19T03:17:52;21.20;87.90
36206;DHT22;22242;48.796;9.930;2023-06-19T03:20:21;21.30;88.60
36206;DHT22;22242;48.796;9.930;2023-06-19T03:22:55;21.30;88.90
36206;DHT22;22242;48.796;9.930;2023-06-19T03:25:23;21.30;88.20
36206;DHT22;22242;48.796;9.930;2023-06-19T03:27:51;21.40;89.90
36206;DHT22;22242;48.796;9.930;2023-06-19T03:30:18;21.40;90.10
36206;DHT22;22242;48.796;9.930;2023-06-19T03:32:49;21.40;90.70
36206;DHT22;22242;48.796;9.930;2023-06-19T03:35:34;21.40;91.00
36206;DHT22;22242;48.796;9.930;2023-06-19T03:38:03;21.40;91.40
36206;DHT22;22242;48.796;9.930;2023-06-19T03:40:31;21.40;92.10
36206;DHT22;22242;48.796;9.930;2023-06-19T03:43:05;21.40;92.20
36206;DHT22;22242;48.796;9.930;2023-06-19T03:45:32;21.40;92.70
36206;DHT22;22242;48.796;9.930;2023-06-19T03:47:59;21.40;93.30
36206;DHT22;22242;48.796;9.930;2023-06-19T03:50:26;21.40;93.60
36206;DHT22;22242;48.796;9.930;2023-06-19T03:52:53;21.30;94.20
36206;DHT22;22242;48.796;9.930;2023-06-19T03:55:21;21.40;94.60
36206;DHT22;22242;48.796;9.930;2023-06-19T03:57:49;21.40;94.80
36206;DHT22;22242;48.796;9.930;2023-06-19T04:00:16;21.40;95.70
36206;DHT22;22242;48.796;9.930;2023-06-19T04:02:44;21.30;96.80
36206;DHT22;22242;48.796;9.930;2023-06-19T04:05:12;21.30;97.70
36206;DHT22;22242;48.796;9.930;2023-06-19T04:07:39;21.30;98.10
36206;DHT22;22242;48.796;9.930;2023-06-19T04:10:07;21.20;99.10
36206;DHT22;22242;48.796;9.930;2023-06-19T04:12:36;21.30;99.40
36206;DHT22;22242;48.796;9.930;2023-06-19T04:15:04;21.30;99.90
36206;DHT22;22242;48.796;9.930;2023-06-19T04:17:32;21.20;99.90
36206;DHT22;22242;48.796;9.930;2023-06-19T04:19:59;21.40;99.90
36206;DHT22;22242;48.796;9.930;2023-06-19T04:22:26;21.40;99.90
36206;DHT22;22242;48.796;9.930;2023-06-19T04:24:53;21.50;99.90
36206;DHT22;22242;48.796;9.930;2023-06-19T04:27:20;21.40;99.90
36206;DHT22;22242;48.796;9.930;2023-06-19T04:29:49;21.40;99.90
36206;DHT22;22242;48.796;9.930;2023-06-19T04:32:18;21.20;99.90
36206;DHT22;22242;48.796;9.930;2023-06-19T04:34:45;21.30;99.90
36206;DHT22;22242;48.796;9.930;2023-06-19T04:37:12;21.40;99.90
36206;DHT22;22242;48.796;9.930;2023-06-19T04:39:39;21.40;99.90
36206;DHT22;22242;48.796;9.930;2023-06-19T04:42:07;21.40;99.90
36206;DHT22;22242;48.796;9.930;2023-06-19T04:44:34;21.50;99.90
36206;DHT22;22242;48.796;9.930;2023-06-19T04:47:02;21.60;99.90
36206;DHT22;22242;48.796;9.930;2023-06-19T04:49:29;21.60;99.90
36206;DHT22;22242;48.796;9.930;2023-06-19T04:51:57;21.60;99.90
36206;DHT22;22242;48.796;9.930;2023-06-19T04:54:24;21.60;99.90
36206;DHT22;22242;48.796;9.930;2023-06-19T04:56:52;21.50;99.90
36206;DHT22;22242;48.796;9.930;2023-06-19T04:59:19;21.50;99.90
36206;DHT22;22242;48.796;9.930;2023-06-19T05:01:46;21.50;99.90
36206;DHT22;22242;48.796;9.930;2023-06-19T05:04:14;21.60;99.90
36206;DHT22;22242;48.796;9.930;2023-06-19T05:06:41;21.70;99.90
36206;DHT22;22242;48.796;9.930;2023-06-19T05:09:09;21.80;99.90
36206;DHT22;22242;48.796;9.930;2023-06-19T05:11:36;21.80;99.90
36206;DHT22;22242;48.796;9.930;2023-06-19T05:14:03;21.80;99.90
36206;DHT22;22242;48.796;9.930;2023-06-19T05:16:30;21.80;99.90
36206;DHT22;22242;48.796;9.930;2023-06-19T05:18:57;21.90;99.90
36206;DHT22;22242;48.796;9.930;2023-06-19T05:21:26;22.10;99.90
36206;DHT22;22242;48.796;9.930;2023-06-19T05:23:53;22.00;99.90
36206;DHT22;22242;48.796;9.930;2023-06-19T05:26:20;22.10;99.90
36206;DHT22;22242;48.796;9.930;2023-06-19T05:28:48;22.20;99.90
36206;DHT22;22242;48.796;9.930;2023-06-19T05:31:15;22.10;99.90
36206;DHT22;22242;48.796;9.930;2023-06-19T05:33:43;22.20;99.90
36206;DHT22;22242;48.796;9.930;2023-06-19T05:36:10;22.20;99.90
36206;DHT22;22242;48.796;9.930;2023-06-19T05:38:38;22.30;99.90
36206;DHT22;22242;48.796;9.930;2023-06-19T05:41:05;22.30;99.90
36206;DHT22;22242;48.796;9.930;2023-06-19T05:43:32;22.30;99.90
36206;DHT22;22242;48.796;9.930;2023-06-19T05:45:59;22.30;99.90
36206;DHT22;22242;48.796;9.930;2023-06-19T05:48:28;22.10;99.90
36206;DHT22;22242;48.796;9.930;2023-06-19T05:50:55;22.00;99.90
36206;DHT22;22242;48.796;9.930;2023-06-19T05:53:22;22.10;99.90
36206;DHT22;22242;48.796;9.930;2023-06-19T05:55:50;22.00;99.90
36206;DHT22;22242;48.796;9.930;2023-06-19T05:58:17;22.10;99.90
36206;DHT22;22242;48.796;9.930;2023-06-19T06:00:45;22.10;99.90
36206;DHT22;22242;48.796;9.930;2023-06-19T06:03:12;22.20;99.90
36206;DHT22;22242;48.796;9.930;2023-06-19T06:05:41;22.10;99.90
36206;DHT22;22242;48.796;9.930;2023-06-19T06:08:08;22.00;99.90
36206;DHT22;22242;48.796;9.930;2023-06-19T06:10:35;21.90;99.90
36206;DHT22;22242;48.796;9.930;2023-06-19T06:13:04;21.70;99.90
36206;DHT22;22242;48.796;9.930;2023-06-19T06:15:31;21.80;99.90
36206;DHT22;22242;48.796;9.930;2023-06-19T06:17:58;21.80;99.90
36206;DHT22;22242;48.796;9.930;2023-06-19T06:20:26;21.80;99.90
36206;DHT22;22242;48.796;9.930;2023-06-19T06:22:53;21.90;99.90
36206;DHT22;22242;48.796;9.930;2023-06-19T06:25:20;21.90;99.90
36206;DHT22;22242;48.796;9.930;2023-06-19T06:27:47;22.10;99.90
36206;DHT22;22242;48.796;9.930;2023-06-19T06:30:16;22.10;99.90
36206;DHT22;22242;48.796;9.930;2023-06-19T06:32:43;22.00;99.90
36206;DHT22;22242;48.796;9.930;2023-06-19T06:35:09;22.10;99.90
36206;DHT22;22242;48.796;9.930;2023-06-19T06:37:36;22.30;99.90
36206;DHT22;22242;48.796;9.930;2023-06-19T06:40:04;22.50;99.90
36206;DHT22;22242;48.796;9.930;2023-06-19T06:42:34;22.70;99.90
36206;DHT22;22242;48.796;9.930;2023-06-19T06:45:01;23.00;99.90
36206;DHT22;22242;48.796;9.930;2023-06-19T06:47:30;23.20;99.90
36206;DHT22;22242;48.796;9.930;2023-06-19T06:49:57;23.20;99.90
36206;DHT22;22242;48.796;9.930;2023-06-19T06:52:26;23.50;99.90
36206;DHT22;22242;48.796;9.930;2023-06-19T06:54:54;23.50;99.90
36206;DHT22;22242;48.796;9.930;2023-06-19T06:57:20;23.60;99.90
36206;DHT22;22242;48.796;9.930;2023-06-19T06:59:47;24.20;99.90
36206;DHT22;22242;48.796;9.930;2023-06-19T07:02:14;24.30;99.90
36206;DHT22;22242;48.796;9.930;2023-06-19T07:04:43;24.20;99.90
36206;DHT22;22242;48.796;9.930;2023-06-19T07:07:11;23.90;99.90
36206;DHT22;22242;48.796;9.930;2023-06-19T07:09:38;23.70;99.90
36206;DHT22;22242;48.796;9.930;2023-06-19T07:12:05;23.90;99.90
36206;DHT22;22242;48.796;9.930;2023-06-19T07:14:32;24.00;99.90
36206;DHT22;22242;48.796;9.930;2023-06-19T07:17:00;24.30;99.90
36206;DHT22;22242;48.796;9.930;2023-06-19T07:19:27;24.50;99.90
36206;DHT22;22242;48.796;9.930;2023-06-19T07:21:56;25.50;98.20
36206;DHT22;22242;48.796;9.930;2023-06-19T07:24:23;26.20;95.90
36206;DHT22;22242;48.796;9.930;2023-06-19T07:26:50;25.90;95.70
36206;DHT22;22242;48.796;9.930;2023-06-19T07:29:17;26.00;94.80
36206;DHT22;22242;48.796;9.930;2023-06-19T07:31:44;26.20;94.10
36206;DHT22;22242;48.796;9.930;2023-06-19T07:34:11;25.40;96.00
36206;DHT22;22242;48.796;9.930;2023-06-19T07:36:38;25.40;96.20
36206;DHT22;22242;48.796;9.930;2023-06-19T07:39:06;26.30;94.70
36206;DHT22;22242;48.796;9.930;2023-06-19T07:41:34;26.30;95.00
36206;DHT22;22242;48.796;9.930;2023-06-19T07:44:01;26.90;93.50
36206;DHT22;22242;48.796;9.930;2023-06-19T07:46:28;27.30;92.70
36206;DHT22;22242;48.796;9.930;2023-06-19T07:48:55;27.60;91.60
36206;DHT22;22242;48.796;9.930;2023-06-19T07:51:22;27.10;92.40
36206;DHT22;22242;48.796;9.930;2023-06-19T07:53:49;26.30;93.20
36206;DHT22;22242;48.796;9.930;2023-06-19T07:56:17;26.50;93.00
36206;DHT22;22242;48.796;9.930;2023-06-19T07:58:45;26.30;93.20
36206;DHT22;22242;48.796;9.930;2023-06-19T08:01:12;26.90;92.00
36206;DHT22;22242;48.796;9.930;2023-06-19T08:03:39;26.90;91.90
36206;DHT22;22242;48.796;9.930;2023-06-19T08:06:08;28.00;91.60
36206;DHT22;22242;48.796;9.930;2023-06-19T08:08:34;30.10;84.20
36206;DHT22;22242;48.796;9.930;2023-06-19T08:11:02;31.40;79.20
36206;DHT22;22242;48.796;9.930;2023-06-19T08:13:30;32.70;70.40
36206;DHT22;22242;48.796;9.930;2023-06-19T08:15:57;32.20;70.30
36206;DHT22;22242;48.796;9.930;2023-06-19T08:18:24;31.40;71.10
36206;DHT22;22242;48.796;9.930;2023-06-19T08:20:51;30.60;73.10
36206;DHT22;22242;48.796;9.930;2023-06-19T08:23:18;29.70;74.60
36206;DHT22;22242;48.796;9.930;2023-06-19T08:25:45;30.10;74.80
36206;DHT22;22242;48.796;9.930;2023-06-19T08:28:12;31.50;69.40
36206;DHT22;22242;48.796;9.930;2023-06-19T08:30:41;33.00;67.40
36206;DHT22;22242;48.796;9.930;2023-06-19T08:33:07;32.40;67.80
36206;DHT22;22242;48.796;9.930;2023-06-19T08:35:34;33.00;66.00
36206;DHT22;22242;48.796;9.930;2023-06-19T08:38:02;32.30;63.90
36206;DHT22;22242;48.796;9.930;2023-06-19T08:40:29;31.20;68.50
36206;DHT22;22242;48.796;9.930;2023-06-19T08:42:56;29.50;71.50
36206;DHT22;22242;48.796;9.930;2023-06-19T08:45:23;28.90;75.70
36206;DHT22;22242;48.796;9.930;2023-06-19T08:47:58;28.50;77.30
36206;DHT22;22242;48.796;9.930;2023-06-19T08:50:25;29.00;77.30
36206;DHT22;22242;48.796;9.930;2023-06-19T08:52:52;30.70;71.50
36206;DHT22;22242;48.796;9.930;2023-06-19T08:55:19;30.40;72.90
36206;DHT22;22242;48.796;9.930;2023-06-19T08:57:48;30.00;72.00
36206;DHT22;22242;48.796;9.930;2023-06-19T09:00:23;29.10;75.00
36206;DHT22;22242;48.796;9.930;2023-06-19T09:02:58;28.80;77.00
36206;DHT22;22242;48.796;9.930;2023-06-19T09:05:25;28.30;78.90
36206;DHT22;22242;48.796;9.930;2023-06-19T09:07:57;27.50;81.90
36206;DHT22;22242;48.796;9.930;2023-06-19T09:10:24;26.50;85.00
36206;DHT22;22242;48.796;9.930;2023-06-19T09:12:58;26.50;87.50
36206;DHT22;22242;48.796;9.930;2023-06-19T09:15:30;26.50;86.40
36206;DHT22;22242;48.796;9.930;2023-06-19T09:18:08;27.00;87.40
36206;DHT22;22242;48.796;9.930;2023-06-19T09:20:38;27.80;83.80
36206;DHT22;22242;48.796;9.930;2023-06-19T09:23:10;28.10;81.50
36206;DHT22;22242;48.796;9.930;2023-06-19T09:25:47;28.70;80.30
36206;DHT22;22242;48.796;9.930;2023-06-19T09:28:19;29.00;77.90
36206;DHT22;22242;48.796;9.930;2023-06-19T09:30:56;29.00;76.10
36206;DHT22;22242;48.796;9.930;2023-06-19T09:33:26;29.20;75.40
36206;DHT22;22242;48.796;9.930;2023-06-19T09:35:55;29.40;75.50
36206;DHT22;22242;48.796;9.930;2023-06-19T09:38:24;29.50;74.20
36206;DHT22;22242;48.796;9.930;2023-06-19T09:40:52;29.30;78.00
36206;DHT22;22242;48.796;9.930;2023-06-19T09:43:24;29.60;75.50
36206;DHT22;22242;48.796;9.930;2023-06-19T09:45:55;30.40;73.40
36206;DHT22;22242;48.796;9.930;2023-06-19T09:48:26;31.50;72.40
36206;DHT22;22242;48.796;9.930;2023-06-19T09:50:59;31.90;68.70
36206;DHT22;22242;48.796;9.930;2023-06-19T09:53:26;31.30;70.30
36206;DHT22;22242;48.796;9.930;2023-06-19T09:55:54;31.20;70.60
36206;DHT22;22242;48.796;9.930;2023-06-19T09:58:21;31.50;68.80
36206;DHT22;22242;48.796;9.930;2023-06-19T10:00:50;31.30;69.40
36206;DHT22;22242;48.796;9.930;2023-06-19T10:03:17;32.10;68.50
36206;DHT22;22242;48.796;9.930;2023-06-19T10:05:45;32.20;68.00
36206;DHT22;22242;48.796;9.930;2023-06-19T10:08:12;32.10;65.70
36206;DHT22;22242;48.796;9.930;2023-06-19T10:10:46;32.70;66.20
36206;DHT22;22242;48.796;9.930;2023-06-19T10:13:15;33.10;65.20
36206;DHT22;22242;48.796;9.930;2023-06-19T10:15:43;32.00;65.70
36206;DHT22;22242;48.796;9.930;2023-06-19T10:18:14;30.80;68.20
36206;DHT22;22242;48.796;9.930;2023-06-19T10:20:45;31.30;69.90
36206;DHT22;22242;48.796;9.930;2023-06-19T10:23:14;32.40;68.80
36206;DHT22;22242;48.796;9.930;2023-06-19T10:25:44;32.60;62.90
36206;DHT22;22242;48.796;9.930;2023-06-19T10:28:19;32.50;62.90
36206;DHT22;22242;48.796;9.930;2023-06-19T10:30:52;31.90;63.20
36206;DHT22;22242;48.796;9.930;2023-06-19T10:33:20;32.10;62.60
36206;DHT22;22242;48.796;9.930;2023-06-19T10:35:49;33.20;60.70
36206;DHT22;22242;48.796;9.930;2023-06-19T10:38:16;32.50;59.80
36206;DHT22;22242;48.796;9.930;2023-06-19T10:40:44;33.90;60.00
36206;DHT22;22242;48.796;9.930;2023-06-19T10:43:12;34.80;57.50
36206;DHT22;22242;48.796;9.930;2023-06-19T10:45:39;34.70;57.90
36206;DHT22;22242;48.796;9.930;2023-06-19T10:48:06;33.50;58.70
36206;DHT22;22242;48.796;9.930;2023-06-19T10:50:37;33.40;57.50
36206;DHT22;22242;48.796;9.930;2023-06-19T10:53:09;32.90;59.50
36206;DHT22;22242;48.796;9.930;2023-06-19T10:55:36;33.20;59.80
36206;DHT22;22242;48.796;9.930;2023-06-19T10:58:03;32.70;59.80
36206;DHT22;22242;48.796;9.930;2023-06-19T11:00:32;33.70;57.50
36206;DHT22;22242;48.796;9.930;2023-06-19T11:02:59;34.70;56.50
36206;DHT22;22242;48.796;9.930;2023-06-19T11:05:27;33.90;57.10
36206;DHT22;22242;48.796;9.930;2023-06-19T11:07:55;32.80;56.60
36206;DHT22;22242;48.796;9.930;2023-06-19T11:10:27;31.80;59.60
36206;DHT22;22242;48.796;9.930;2023-06-19T11:12:55;31.00;60.90
36206;DHT22;22242;48.796;9.930;2023-06-19T11:15:29;30.40;62.30
36206;DHT22;22242;48.796;9.930;2023-06-19T11:17:56;29.90;63.80
36206;DHT22;22242;48.796;9.930;2023-06-19T11:20:25;29.80;65.70
36206;DHT22;22242;48.796;9.930;2023-06-19T11:22:55;30.00;65.40
36206;DHT22;22242;48.796;9.930;2023-06-19T11:25:34;29.70;64.10
36206;DHT22;22242;48.796;9.930;2023-06-19T11:28:02;29.90;63.90
36206;DHT22;22242;48.796;9.930;2023-06-19T11:30:33;29.70;64.80
36206;DHT22;22242;48.796;9.930;2023-06-19T11:33:01;30.00;65.10
36206;DHT22;22242;48.796;9.930;2023-06-19T11:35:32;29.90;63.60
36206;DHT22;22242;48.796;9.930;2023-06-19T11:38:02;29.70;65.00
36206;DHT22;22242;48.796;9.930;2023-06-19T11:40:40;29.30;66.60
36206;DHT22;22242;48.796;9.930;2023-06-19T11:43:07;29.40;65.20
36206;DHT22;22242;48.796;9.930;2023-06-19T11:45:47;29.10;65.30
36206;DHT22;22242;48.796;9.930;2023-06-19T11:48:20;29.80;64.60
36206;DHT22;22242;48.796;9.930;2023-06-19T11:50:48;29.90;63.20
36206;DHT22;22242;48.796;9.930;2023-06-19T11:53:14;29.50;64.10
36206;DHT22;22242;48.796;9.930;2023-06-19T11:55:43;29.10;65.60
36206;DHT22;22242;48.796;9.930;2023-06-19T11:58:10;29.10;64.10
36206;DHT22;22242;48.796;9.930;2023-06-19T12:00:38;29.20;65.80
36206;DHT22;22242;48.796;9.930;2023-06-19T12:03:05;30.00;64.60
36206;DHT22;22242;48.796;9.930;2023-06-19T12:05:32;30.30;60.30
36206;DHT22;22242;48.796;9.930;2023-06-19T12:07:59;31.10;58.00
36206;DHT22;22242;48.796;9.930;2023-06-19T12:10:27;31.00;57.70
36206;DHT22;22242;48.796;9.930;2023-06-19T12:12:57;31.00;59.40
36206;DHT22;22242;48.796;9.930;2023-06-19T12:15:24;30.70;59.30
36206;DHT22;22242;48.796;9.930;2023-06-19T12:17:52;30.50;58.90
36206;DHT22;22242;48.796;9.930;2023-06-19T12:20:19;30.50;59.30
36206;DHT22;22242;48.796;9.930;2023-06-19T12:22:46;30.50;58.90
36206;DHT22;22242;48.796;9.930;2023-06-19T12:25:13;30.10;62.70
36206;DHT22;22242;48.796;9.930;2023-06-19T12:27:40;30.50;59.10
36206;DHT22;22242;48.796;9.930;2023-06-19T12:30:09;30.20;60.10
36206;DHT22;22242;48.796;9.930;2023-06-19T12:32:36;30.30;60.50
36206;DHT22;22242;48.796;9.930;2023-06-19T12:35:04;30.40;60.90
36206;DHT22;22242;48.796;9.930;2023-06-19T12:37:32;30.80;59.80
36206;DHT22;22242;48.796;9.930;2023-06-19T12:39:58;30.70;57.80
36206;DHT22;22242;48.796;9.930;2023-06-19T12:42:26;30.40;58.50
36206;DHT22;22242;48.796;9.930;2023-06-19T12:44:53;30.70;59.40
36206;DHT22;22242;48.796;9.930;2023-06-19T12:47:21;30.60;59.60
36206;DHT22;22242;48.796;9.930;2023-06-19T12:49:48;30.20;59.20
36206;DHT22;22242;48.796;9.930;2023-06-19T12:52:15;30.20;59.70
36206;DHT22;22242;48.796;9.930;2023-06-19T12:54:42;29.80;60.70
36206;DHT22;22242;48.796;9.930;2023-06-19T12:57:09;29.60;61.00
36206;DHT22;22242;48.796;9.930;2023-06-19T12:59:36;29.70;60.80
36206;DHT22;22242;48.796;9.930;2023-06-19T13:02:03;29.70;61.30
36206;DHT22;22242;48.796;9.930;2023-06-19T13:04:31;29.70;61.20
36206;DHT22;22242;48.796;9.930;2023-06-19T13:06:58;29.60;62.70
36206;DHT22;22242;48.796;9.930;2023-06-19T13:09:25;29.30;62.90
36206;DHT22;22242;48.796;9.930;2023-06-19T13:11:52;29.70;61.60
36206;DHT22;22242;48.796;9.930;2023-06-19T13:14:19;29.80;59.50
36206;DHT22;22242;48.796;9.930;2023-06-19T13:16:46;29.90;59.50
36206;DHT22;22242;48.796;9.930;2023-06-19T13:19:13;29.70;60.70
36206;DHT22;22242;48.796;9.930;2023-06-19T13:21:42;29.70;57.90
36206;DHT22;22242;48.796;9.930;2023-06-19T13:24:10;29.80;59.60
36206;DHT22;22242;48.796;9.930;2023-06-19T13:26:38;30.10;59.70
36206;DHT22;22242;48.796;9.930;2023-06-19T13:29:04;30.50;57.70
36206;DHT22;22242;48.796;9.930;2023-06-19T13:31:31;30.50;59.20
36206;DHT22;22242;48.796;9.930;2023-06-19T13:33:59;30.50;58.40
36206;DHT22;22242;48.796;9.930;2023-06-19T13:36:26;30.00;59.10
36206;DHT22;22242;48.796;9.930;2023-06-19T13:38:54;30.00;59.70
36206;DHT22;22242;48.796;9.930;2023-06-19T13:41:22;30.50;59.10
36206;DHT22;22242;48.796;9.930;2023-06-19T13:43:49;30.40;57.10
36206;DHT22;22242;48.796;9.930;2023-06-19T13:46:16;30.10;58.30
36206;DHT22;22242;48.796;9.930;2023-06-19T13:48:43;30.10;57.60
36206;DHT22;22242;48.796;9.930;2023-06-19T13:51:14;30.10;57.20
36206;DHT22;22242;48.796;9.930;2023-06-19T13:53:41;30.00;57.20
36206;DHT22;22242;48.796;9.930;2023-06-19T13:56:09;29.90;57.60
36206;DHT22;22242;48.796;9.930;2023-06-19T13:58:36;30.20;58.50
36206;DHT22;22242;48.796;9.930;2023-06-19T14:01:04;30.10;56.10
36206;DHT22;22242;48.796;9.930;2023-06-19T14:03:30;30.20;57.20
36206;DHT22;22242;48.796;9.930;2023-06-19T14:05:58;30.40;55.80
36206;DHT22;22242;48.796;9.930;2023-06-19T14:08:25;30.40;58.40
36206;DHT22;22242;48.796;9.930;2023-06-19T14:10:52;30.40;58.60
36206;DHT22;22242;48.796;9.930;2023-06-19T14:13:20;30.10;58.10
36206;DHT22;22242;48.796;9.930;2023-06-19T14:15:47;29.90;57.60
36206;DHT22;22242;48.796;9.930;2023-06-19T14:18:14;30.00;58.10
36206;DHT22;22242;48.796;9.930;2023-06-19T14:20:41;29.80;58.20
36206;DHT22;22242;48.796;9.930;2023-06-19T14:23:08;30.10;58.60
36206;DHT22;22242;48.796;9.930;2023-06-19T14:25:35;30.10;56.80
36206;DHT22;22242;48.796;9.930;2023-06-19T14:28:03;30.20;59.10
36206;DHT22;22242;48.796;9.930;2023-06-19T14:30:32;29.80;57.30
36206;DHT22;22242;48.796;9.930;2023-06-19T14:33:00;29.70;57.50
36206;DHT22;22242;48.796;9.930;2023-06-19T14:35:27;29.70;58.40
36206;DHT22;22242;48.796;9.930;2023-06-19T14:37:54;29.60;57.10
36206;DHT22;22242;48.796;9.930;2023-06-19T14:40:21;29.50;59.80
36206;DHT22;22242;48.796;9.930;2023-06-19T14:42:48;29.60;60.50
36206;DHT22;22242;48.796;9.930;2023-06-19T14:45:15;29.70;59.60
36206;DHT22;22242;48.796;9.930;2023-06-19T14:47:44;29.50;58.10
36206;DHT22;22242;48.796;9.930;2023-06-19T14:50:10;29.80;58.80
36206;DHT22;22242;48.796;9.930;2023-06-19T14:52:37;29.60;57.50
36206;DHT22;22242;48.796;9.930;2023-06-19T14:55:05;29.70;59.10
36206;DHT22;22242;48.796;9.930;2023-06-19T14:57:32;29.80;59.60
36206;DHT22;22242;48.796;9.930;2023-06-19T14:59:59;29.60;59.30
36206;DHT22;22242;48.796;9.930;2023-06-19T15:02:26;29.40;59.60
36206;DHT22;22242;48.796;9.930;2023-06-19T15:04:54;29.30;59.60
36206;DHT22;22242;48.796;9.930;2023-06-19T15:07:21;29.20;62.00
36206;DHT22;22242;48.796;9.930;2023-06-19T15:09:49;29.20;61.70
36206;DHT22;22242;48.796;9.930;2023-06-19T15:12:15;29.40;59.50
36206;DHT22;22242;48.796;9.930;2023-06-19T15:14:42;29.30;61.00
36206;DHT22;22242;48.796;9.930;2023-06-19T15:17:10;29.10;61.80
36206;DHT22;22242;48.796;9.930;2023-06-19T15:19:36;29.00;62.90
36206;DHT22;22242;48.796;9.930;2023-06-19T15:22:05;29.00;61.90
36206;DHT22;22242;48.796;9.930;2023-06-19T15:24:32;29.00;63.30
36206;DHT22;22242;48.796;9.930;2023-06-19T15:27:00;29.20;62.30
36206;DHT22;22242;48.796;9.930;2023-06-19T15:29:26;29.20;62.60
36206;DHT22;22242;48.796;9.930;2023-06-19T15:31:53;29.30;61.30
36206;DHT22;22242;48.796;9.930;2023-06-19T15:34:20;29.40;61.80